Weslaco Annex Farm's Hourly Summary for Wednesday, July 11, 2018
Hour Temp
(f)
RH
(%)
Solar Rad.
(MJ/m2)
Rainfall
(in)
Wind
(mph)
7/11/2018 12:00 AM 78 88 0 0 3.21
7/11/2018 1:00 AM 77 90 0 0 3.09
7/11/2018 2:00 AM 76 92 0 0 2.71
7/11/2018 3:00 AM 76 94 0 0 2.47
7/11/2018 4:00 AM 75 95 0 0 3.15
7/11/2018 5:00 AM 74 96 0 0 2.33
7/11/2018 6:00 AM 74 97 0 0 2.31
7/11/2018 7:00 AM 75 96 0.14 0 3.37
7/11/2018 8:00 AM 79 88 0.61 0 5.99
7/11/2018 9:00 AM 84 76 1.11 0 8.9
7/11/2018 10:00 AM 86 65 1.56 0 9.66
7/11/2018 11:00 AM 89 59 1.81 0 8.58
7/11/2018 12:00 PM 91 53 2.07 0 7.94
7/11/2018 1:00 PM 93 48 2.1 0 8.37
7/11/2018 2:00 PM 94 45 2.17 0 7.81
7/11/2018 3:00 PM 95 41 1.94 0 7.08
7/11/2018 4:00 PM 95 38 1.63 0 6.9
7/11/2018 5:00 PM 95 39 1.21 0 7.2
7/11/2018 6:00 PM 93 46 0.67 0 8.38
7/11/2018 7:00 PM 90 53 0.27 0 9.36
7/11/2018 8:00 PM 86 61 0.02 0 8.02
7/11/2018 9:00 PM 83 69 0 0 6.05
7/11/2018 10:00 PM 81 77 0 0 6.08
7/11/2018 11:00 PM 80 82 0 0 5.38
Data Summary 84 70 17.31 0.00 6.01